sensor_id;sensor_type;location;lat;lon;timestamp;P1;durP1;ratioP1;P2;durP2;ratioP2
55324;SDS011;41201;45.822;20.454;2023-08-20T16:25:48;47.25;;;9.43;;
55324;SDS011;41201;45.822;20.454;2023-08-20T16:26:18;50.53;;;10.13;;
55324;SDS011;41201;45.822;20.454;2023-08-20T16:26:48;60.57;;;9.30;;
55324;SDS011;41201;45.822;20.454;2023-08-20T16:27:18;218.47;;;17.10;;
55324;SDS011;41201;45.822;20.454;2023-08-20T16:29:40;76.29;;;10.92;;
55324;SDS011;41201;45.822;20.454;2023-08-20T16:30:11;80.63;;;11.27;;
55324;SDS011;41201;45.822;20.454;2023-08-20T16:30:41;69.65;;;10.18;;
55324;SDS011;41201;45.822;20.454;2023-08-20T16:31:11;64.70;;;10.67;;
55324;SDS011;41201;45.822;20.454;2023-08-20T16:31:41;62.67;;;10.90;;
55324;SDS011;41201;45.822;20.454;2023-08-20T16:32:11;70.37;;;10.10;;
55324;SDS011;41201;45.822;20.454;2023-08-20T16:32:41;65.03;;;10.37;;
55324;SDS011;41201;45.822;20.454;2023-08-20T16:33:12;57.70;;;10.33;;
55324;SDS011;41201;45.822;20.454;2023-08-20T16:33:42;77.10;;;11.48;;
55324;SDS011;41201;45.822;20.454;2023-08-20T16:34:12;60.77;;;10.53;;
55324;SDS011;41201;45.822;20.454;2023-08-20T16:34:42;60.97;;;10.70;;
55324;SDS011;41201;45.822;20.454;2023-08-20T16:35:12;71.03;;;10.47;;
55324;SDS011;41201;45.822;20.454;2023-08-20T16:35:46;62.20;;;10.52;;
55324;SDS011;41201;45.822;20.454;2023-08-20T16:36:16;56.72;;;10.25;;
55324;SDS011;41201;45.822;20.454;2023-08-20T16:36:46;58.87;;;10.17;;
55324;SDS011;41201;45.822;20.454;2023-08-20T16:37:16;54.57;;;10.70;;
55324;SDS011;41201;45.822;20.454;2023-08-20T16:37:47;68.43;;;10.67;;
55324;SDS011;41201;45.822;20.454;2023-08-20T16:38:17;59.87;;;10.47;;
55324;SDS011;41201;45.822;20.454;2023-08-20T16:38:47;59.20;;;10.03;;
55324;SDS011;41201;45.822;20.454;2023-08-20T16:39:17;58.57;;;10.90;;
55324;SDS011;41201;45.822;20.454;2023-08-20T16:39:47;56.83;;;11.13;;
55324;SDS011;41201;45.822;20.454;2023-08-20T16:40:21;65.00;;;10.80;;
55324;SDS011;41201;45.822;20.454;2023-08-20T16:40:52;63.53;;;9.98;;
55324;SDS011;41201;45.822;20.454;2023-08-20T16:41:22;59.78;;;10.80;;
55324;SDS011;41201;45.822;20.454;2023-08-20T16:41:53;58.97;;;10.07;;
55324;SDS011;41201;45.822;20.454;2023-08-20T16:42:23;50.07;;;10.00;;
55324;SDS011;41201;45.822;20.454;2023-08-20T16:42:53;57.33;;;9.23;;
55324;SDS011;41201;45.822;20.454;2023-08-20T16:43:23;53.87;;;10.23;;
55324;SDS011;41201;45.822;20.454;2023-08-20T16:43:53;45.97;;;9.07;;
55324;SDS011;41201;45.822;20.454;2023-08-20T16:44:23;51.53;;;9.77;;
55324;SDS011;41201;45.822;20.454;2023-08-20T16:44:53;57.27;;;9.57;;
55324;SDS011;41201;45.822;20.454;2023-08-20T16:45:24;52.87;;;9.73;;
55324;SDS011;41201;45.822;20.454;2023-08-20T16:45:57;60.20;;;10.70;;
55324;SDS011;41201;45.822;20.454;2023-08-20T16:46:27;55.65;;;10.15;;
55324;SDS011;41201;45.822;20.454;2023-08-20T16:46:57;42.30;;;9.87;;
55324;SDS011;41201;45.822;20.454;2023-08-20T16:47:27;46.03;;;9.90;;
55324;SDS011;41201;45.822;20.454;2023-08-20T16:47:58;45.57;;;9.03;;
55324;SDS011;41201;45.822;20.454;2023-08-20T16:48:28;50.72;;;9.43;;
55324;SDS011;41201;45.822;20.454;2023-08-20T16:48:58;46.65;;;10.77;;
55324;SDS011;41201;45.822;20.454;2023-08-20T16:49:28;51.63;;;9.83;;
55324;SDS011;41201;45.822;20.454;2023-08-20T16:49:59;55.60;;;10.13;;
55324;SDS011;41201;45.822;20.454;2023-08-20T16:50:29;54.63;;;10.40;;
55324;SDS011;41201;45.822;20.454;2023-08-20T16:50:59;47.27;;;9.17;;
55324;SDS011;41201;45.822;20.454;2023-08-20T16:51:30;40.63;;;9.63;;
55324;SDS011;41201;45.822;20.454;2023-08-20T16:52:00;57.83;;;10.13;;
55324;SDS011;41201;45.822;20.454;2023-08-20T16:52:30;58.23;;;9.93;;
55324;SDS011;41201;45.822;20.454;2023-08-20T16:53:00;63.80;;;12.45;;
55324;SDS011;41201;45.822;20.454;2023-08-20T16:53:30;76.00;;;10.67;;
55324;SDS011;41201;45.822;20.454;2023-08-20T16:54:01;117.00;;;14.47;;
55324;SDS011;41201;45.822;20.454;2023-08-20T16:54:31;127.07;;;14.17;;
55324;SDS011;41201;45.822;20.454;2023-08-20T16:55:01;134.70;;;15.30;;
55324;SDS011;41201;45.822;20.454;2023-08-20T16:55:31;110.85;;;14.35;;
55324;SDS011;41201;45.822;20.454;2023-08-20T16:56:01;123.07;;;13.67;;
55324;SDS011;41201;45.822;20.454;2023-08-20T16:56:31;99.85;;;12.80;;
55324;SDS011;41201;45.822;20.454;2023-08-20T16:57:02;95.37;;;14.07;;
55324;SDS011;41201;45.822;20.454;2023-08-20T16:57:32;108.50;;;14.70;;
55324;SDS011;41201;45.822;20.454;2023-08-20T16:58:02;92.20;;;12.63;;
55324;SDS011;41201;45.822;20.454;2023-08-20T16:58:32;86.57;;;12.60;;
55324;SDS011;41201;45.822;20.454;2023-08-20T16:59:02;94.83;;;15.47;;
55324;SDS011;41201;45.822;20.454;2023-08-20T16:59:32;97.43;;;12.60;;
55324;SDS011;41201;45.822;20.454;2023-08-20T17:00:03;78.47;;;11.83;;
55324;SDS011;41201;45.822;20.454;2023-08-20T17:00:33;94.30;;;14.52;;
55324;SDS011;41201;45.822;20.454;2023-08-20T17:01:03;118.10;;;13.20;;
55324;SDS011;41201;45.822;20.454;2023-08-20T17:01:33;103.90;;;12.33;;
55324;SDS011;41201;45.822;20.454;2023-08-20T17:02:03;112.90;;;13.93;;
55324;SDS011;41201;45.822;20.454;2023-08-20T17:02:34;115.63;;;13.85;;
55324;SDS011;41201;45.822;20.454;2023-08-20T17:03:04;131.38;;;15.38;;
55324;SDS011;41201;45.822;20.454;2023-08-20T17:03:34;106.87;;;14.53;;
55324;SDS011;41201;45.822;20.454;2023-08-20T17:04:04;118.20;;;13.07;;
55324;SDS011;41201;45.822;20.454;2023-08-20T17:04:34;104.87;;;12.63;;
55324;SDS011;41201;45.822;20.454;2023-08-20T17:05:05;112.73;;;14.07;;
55324;SDS011;41201;45.822;20.454;2023-08-20T17:05:35;100.40;;;15.40;;
55324;SDS011;41201;45.822;20.454;2023-08-20T17:06:05;103.07;;;14.77;;
55324;SDS011;41201;45.822;20.454;2023-08-20T17:06:35;114.00;;;15.80;;
55324;SDS011;41201;45.822;20.454;2023-08-20T17:07:05;95.73;;;13.03;;
55324;SDS011;41201;45.822;20.454;2023-08-20T17:07:36;103.67;;;13.83;;
55324;SDS011;41201;45.822;20.454;2023-08-20T17:08:06;107.22;;;14.05;;
55324;SDS011;41201;45.822;20.454;2023-08-20T17:08:36;112.27;;;13.47;;
55324;SDS011;41201;45.822;20.454;2023-08-20T17:09:07;116.83;;;13.93;;
55324;SDS011;41201;45.822;20.454;2023-08-20T17:09:37;93.47;;;12.57;;
55324;SDS011;41201;45.822;20.454;2023-08-20T17:10:07;122.38;;;15.43;;
55324;SDS011;41201;45.822;20.454;2023-08-20T17:10:37;122.18;;;14.63;;
55324;SDS011;41201;45.822;20.454;2023-08-20T17:11:08;105.88;;;13.85;;
55324;SDS011;41201;45.822;20.454;2023-08-20T17:11:38;103.38;;;14.13;;
55324;SDS011;41201;45.822;20.454;2023-08-20T17:12:09;117.87;;;13.90;;
55324;SDS011;41201;45.822;20.454;2023-08-20T17:12:39;93.53;;;11.80;;
55324;SDS011;41201;45.822;20.454;2023-08-20T17:13:09;102.93;;;12.95;;
55324;SDS011;41201;45.822;20.454;2023-08-20T17:13:39;109.30;;;15.90;;
55324;SDS011;41201;45.822;20.454;2023-08-20T17:14:09;117.87;;;14.90;;
55324;SDS011;41201;45.822;20.454;2023-08-20T17:14:39;120.53;;;16.03;;
55324;SDS011;41201;45.822;20.454;2023-08-20T17:15:10;101.97;;;14.83;;
55324;SDS011;41201;45.822;20.454;2023-08-20T17:15:40;121.17;;;15.03;;
55324;SDS011;41201;45.822;20.454;2023-08-20T17:16:10;108.77;;;15.03;;
55324;SDS011;41201;45.822;20.454;2023-08-20T17:16:40;125.50;;;15.37;;
55324;SDS011;41201;45.822;20.454;2023-08-20T17:17:10;104.50;;;15.27;;
55324;SDS011;41201;45.822;20.454;2023-08-20T17:17:40;100.77;;;14.73;;
55324;SDS011;41201;45.822;20.454;2023-08-20T17:18:10;132.93;;;14.67;;
55324;SDS011;41201;45.822;20.454;2023-08-20T17:18:41;116.47;;;14.93;;
55324;SDS011;41201;45.822;20.454;2023-08-20T17:19:11;102.33;;;15.07;;
55324;SDS011;41201;45.822;20.454;2023-08-20T17:19:41;126.23;;;17.17;;
55324;SDS011;41201;45.822;20.454;2023-08-20T17:20:11;133.60;;;15.83;;
55324;SDS011;41201;45.822;20.454;2023-08-20T17:20:42;126.07;;;15.52;;
55324;SDS011;41201;45.822;20.454;2023-08-20T17:21:12;117.10;;;14.17;;
55324;SDS011;41201;45.822;20.454;2023-08-20T17:21:42;130.20;;;14.90;;
55324;SDS011;41201;45.822;20.454;2023-08-20T17:22:12;120.47;;;15.67;;
55324;SDS011;41201;45.822;20.454;2023-08-20T17:22:42;119.67;;;15.67;;
55324;SDS011;41201;45.822;20.454;2023-08-20T17:23:12;118.83;;;14.57;;
55324;SDS011;41201;45.822;20.454;2023-08-20T17:23:43;111.32;;;14.52;;
55324;SDS011;41201;45.822;20.454;2023-08-20T17:24:13;118.87;;;15.87;;
55324;SDS011;41201;45.822;20.454;2023-08-20T17:24:43;112.47;;;16.07;;
55324;SDS011;41201;45.822;20.454;2023-08-20T17:25:13;129.00;;;16.67;;
55324;SDS011;41201;45.822;20.454;2023-08-20T17:25:43;118.77;;;16.20;;
55324;SDS011;41201;45.822;20.454;2023-08-20T17:26:13;113.00;;;15.17;;
55324;SDS011;41201;45.822;20.454;2023-08-20T17:26:43;131.17;;;14.70;;
55324;SDS011;41201;45.822;20.454;2023-08-20T17:27:14;122.00;;;15.50;;
55324;SDS011;41201;45.822;20.454;2023-08-20T17:27:44;115.50;;;15.27;;
55324;SDS011;41201;45.822;20.454;2023-08-20T17:28:14;131.47;;;15.93;;
55324;SDS011;41201;45.822;20.454;2023-08-20T17:28:45;109.07;;;14.77;;
55324;SDS011;41201;45.822;20.454;2023-08-20T17:29:15;103.67;;;14.20;;
55324;SDS011;41201;45.822;20.454;2023-08-20T17:29:46;117.97;;;14.27;;
55324;SDS011;41201;45.822;20.454;2023-08-20T17:30:16;98.63;;;14.85;;
55324;SDS011;41201;45.822;20.454;2023-08-20T17:30:46;97.63;;;13.30;;
55324;SDS011;41201;45.822;20.454;2023-08-20T17:31:17;113.50;;;15.83;;
55324;SDS011;41201;45.822;20.454;2023-08-20T17:31:47;116.73;;;15.10;;
55324;SDS011;41201;45.822;20.454;2023-08-20T17:32:17;98.90;;;15.63;;
55324;SDS011;41201;45.822;20.454;2023-08-20T17:32:47;96.90;;;13.93;;
